DC13 weather

Walter Reed Forest Glen Heliport
Washington, District of Columbia, United States

Public forecast

Using degrees Fahrenheit for public forecast. Weather courtesy of forecast.io.

Closest aviation weather report (METAR) to Walter Reed Forest Glen Heliport

Report is more than 6 hours old.

Closest report is College Park Airport, 6.5 nm (12.0 km) ESE. Retrieved 2020/05/16 06:52 UTC (13 days ago):

KCGS 160652Z AUTO 00000KT 10SM SCT110 22/13 A2993 RMK AO1 T02170128

Closest aviation forecast (TAF) to Walter Reed Forest Glen Heliport

Closest forecast is Ronald Reagan Washington National Airport, 9.3 nm (17.2 km) S. Retrieved 2020/05/29 06:45 UTC (0 seconds ago):

TAF KDCA 290543Z 2906/3012 18007KT 6SM BR OVC011 FM290700 18007KT 6SM BR OVC008 FM290900 19006KT 5SM -SHRA VCTS OVC008CB FM291100 17006KT 5SM BR OVC008 FM291300 18006KT P6SM OVC010 FM291600 20011G18KT P6SM BKN040 BKN250 FM292300 19013G20KT P6SM VCTS BKN040CB OVC250 FM300200 21010KT P6SM OVC250 FM300900 30007KT P6SM BKN100